createdAt,value
2023-01-18T00:00:11.638Z,6.72
2023-01-18T00:05:40.253Z,4.66
2023-01-18T00:10:43.660Z,3.02
2023-01-18T00:15:46.309Z,4.27
2023-01-18T00:20:49.055Z,5.87
2023-01-18T00:25:51.675Z,6.32
2023-01-18T00:30:54.393Z,4.28
2023-01-18T00:36:01.100Z,3.61
2023-01-18T00:41:03.981Z,5.45
2023-01-18T00:46:10.484Z,6.52
2023-01-18T00:51:19.382Z,5.48
2023-01-18T00:56:22.847Z,3.49
2023-01-18T01:01:25.640Z,4.64
2023-01-18T01:06:35.747Z,6.15
2023-01-18T01:11:38.438Z,5.96
2023-01-18T01:16:44.064Z,3.75
2023-01-18T01:21:49.834Z,3.75
2023-01-18T01:26:57.090Z,5.55
2023-01-18T01:31:59.781Z,6.45
2023-01-18T01:37:03.411Z,4.89
2023-01-18T01:42:06.064Z,3.10
2023-01-18T01:47:14.289Z,4.45
2023-01-18T01:52:22.364Z,5.97
2023-01-18T01:57:30.522Z,5.85
2023-01-18T02:02:35.331Z,3.67
2023-01-18T02:07:38.066Z,3.71
2023-01-18T02:12:46.223Z,5.50
2023-01-18T02:17:49.818Z,6.38
2023-01-18T02:22:56.751Z,4.77
2023-01-18T02:28:02.791Z,3.11
2023-01-18T02:33:10.718Z,4.67
2023-01-18T02:38:19.223Z,6.13
2023-01-18T02:43:27.435Z,5.99
2023-01-18T02:48:37.707Z,3.81
2023-01-18T02:53:43.497Z,3.53
2023-01-18T02:58:53.684Z,5.56
2023-01-18T03:04:03.490Z,6.52
2023-01-18T03:09:06.183Z,4.77
2023-01-18T03:14:31.641Z,2.94
2023-01-18T03:19:44.975Z,3.34
2023-01-18T03:24:47.574Z,5.36
2023-01-18T03:29:53.277Z,6.42
2023-01-18T03:35:03.202Z,5.42
2023-01-18T03:40:18.756Z,3.34
2023-01-18T03:45:29.864Z,4.27
2023-01-18T03:50:42.830Z,5.95
2023-01-18T03:55:50.218Z,5.89
2023-01-18T04:00:53.423Z,3.67
2023-01-18T04:05:56.120Z,3.24
2023-01-18T04:10:58.761Z,5.15
2023-01-18T04:16:01.428Z,6.33
2023-01-18T04:21:04.245Z,5.73
2023-01-18T04:26:07.006Z,3.57
2023-01-18T04:31:09.817Z,3.24
2023-01-18T04:36:12.486Z,5.22
2023-01-18T04:41:15.100Z,6.36
2023-01-18T04:46:17.820Z,5.74
2023-01-18T04:51:23.842Z,3.51
2023-01-18T04:56:26.630Z,2.75
2023-01-18T05:01:29.701Z,4.74
2023-01-18T05:06:32.392Z,6.17
2023-01-18T05:11:35.004Z,5.76
2023-01-18T05:16:39.825Z,3.77
2023-01-18T05:21:42.534Z,3.45
2023-01-18T05:26:45.153Z,5.41
2023-01-18T05:31:47.788Z,6.48
2023-01-18T05:36:50.566Z,5.10
2023-01-18T05:41:53.263Z,3.24
2023-01-18T05:46:55.878Z,3.00
2023-01-18T05:51:58.537Z,4.92
2023-01-18T05:57:01.151Z,6.18
2023-01-18T06:02:04.493Z,6.28
2023-01-18T06:07:09.141Z,4.19
2023-01-18T06:12:14.200Z,3.17
2023-01-18T06:17:16.911Z,4.94
2023-01-18T06:22:19.722Z,6.17
2023-01-18T06:27:22.356Z,6.03
2023-01-18T06:32:25.023Z,3.78
2023-01-18T06:37:28.022Z,4.17
2023-01-18T06:42:30.629Z,5.68
2023-01-18T06:47:33.271Z,6.42
2023-01-18T06:52:35.937Z,4.92
2023-01-18T06:57:38.585Z,2.99
2023-01-18T07:02:41.175Z,2.73
2023-01-18T07:07:45.620Z,4.81
2023-01-18T07:12:50.750Z,6.02
2023-01-18T07:17:53.378Z,5.68
2023-01-18T07:22:56.531Z,3.40
2023-01-18T07:27:59.368Z,3.72
2023-01-18T07:33:02.139Z,5.51
2023-01-18T07:38:04.772Z,6.51
2023-01-18T07:43:07.448Z,6.19
2023-01-18T07:48:10.550Z,4.31
2023-01-18T07:53:13.292Z,5.71
2023-01-18T07:58:16.954Z,6.81
2023-01-18T08:03:20.335Z,5.03
2023-01-18T08:08:23.025Z,4.39
2023-01-18T08:13:27.009Z,6.14
2023-01-18T08:18:30.316Z,6.86
2023-01-18T08:23:34.437Z,6.05
2023-01-18T08:28:37.494Z,4.01
2023-01-18T08:33:47.425Z,5.43
2023-01-18T08:38:52.370Z,7.04
2023-01-18T08:43:58.844Z,6.88
2023-01-18T08:49:01.747Z,4.70
2023-01-18T08:54:06.474Z,6.01
2023-01-18T08:59:09.607Z,7.34
2023-01-18T09:04:12.341Z,7.19
2023-01-18T09:09:15.117Z,5.33
2023-01-18T09:14:18.158Z,6.26
2023-01-18T09:19:20.820Z,7.50
2023-01-18T09:24:23.560Z,6.19
2023-01-18T09:29:26.224Z,5.03
2023-01-18T09:34:28.993Z,6.74
2023-01-18T09:39:37.655Z,7.53
2023-01-18T09:44:53.258Z,5.53
2023-01-18T09:49:59.163Z,5.62
2023-01-18T09:55:04.785Z,7.18
2023-01-18T10:00:20.850Z,7.66
2023-01-18T10:05:27.186Z,5.56
2023-01-18T10:10:36.336Z,5.73
2023-01-18T10:15:41.404Z,7.39
2023-01-18T10:20:52.128Z,7.97
2023-01-18T10:26:01.811Z,6.24
2023-01-18T10:31:09.369Z,5.61
2023-01-18T10:36:18.400Z,7.36
2023-01-18T10:41:27.579Z,7.68
2023-01-18T10:46:30.206Z,5.55
2023-01-18T10:51:35.433Z,6.13
2023-01-18T10:56:39.921Z,7.63
2023-01-18T11:01:57.850Z,7.15
2023-01-18T11:07:03.025Z,5.24
2023-01-18T11:12:30.728Z,6.55
2023-01-18T11:17:33.442Z,7.55
2023-01-18T11:22:36.156Z,7.53
2023-01-18T11:27:42.099Z,5.44
2023-01-18T11:32:44.919Z,6.05
2023-01-18T11:37:48.756Z,7.46
2023-01-18T11:42:53.143Z,7.73
2023-01-18T11:48:03.522Z,5.77
2023-01-18T11:53:08.992Z,6.58
2023-01-18T11:58:23.332Z,7.52
2023-01-18T12:03:26.137Z,7.60
2023-01-18T12:08:38.096Z,7.24
2023-01-18T12:13:52.790Z,5.32
2023-01-18T12:19:00.338Z,6.47
2023-01-18T12:24:03.007Z,7.46
2023-01-18T12:29:42.717Z,7.66
2023-01-18T12:34:48.329Z,6.29
2023-01-18T12:39:50.892Z,4.92
2023-01-18T12:44:58.172Z,6.44
2023-01-18T12:50:07.948Z,7.44
2023-01-18T12:55:17.924Z,7.49
2023-01-18T13:00:31.382Z,5.95
2023-01-18T13:05:50.852Z,6.65
2023-01-18T13:11:00.918Z,7.45
2023-01-18T13:16:15.187Z,7.73
2023-01-18T13:21:21.832Z,6.15
2023-01-18T13:26:34.542Z,6.18
2023-01-18T13:31:37.971Z,7.57
2023-01-18T13:36:44.947Z,7.73
2023-01-18T13:41:53.731Z,6.09
2023-01-18T13:46:59.731Z,6.76
2023-01-18T13:52:04.404Z,7.63
2023-01-18T13:57:09.600Z,7.90
2023-01-18T14:02:15.296Z,5.94
2023-01-18T14:07:22.628Z,6.78
2023-01-18T14:12:31.141Z,7.71
2023-01-18T14:17:34.760Z,7.98
2023-01-18T14:22:46.968Z,6.87
2023-01-18T14:28:01.428Z,6.17
2023-01-18T14:33:11.257Z,7.36
2023-01-18T14:38:19.046Z,7.80
2023-01-18T14:43:28.446Z,6.49
2023-01-18T14:48:34.722Z,6.65
2023-01-18T14:53:44.248Z,7.60
2023-01-18T14:58:52.551Z,7.97
2023-01-18T15:03:56.677Z,7.30
2023-01-18T15:08:59.521Z,5.74
2023-01-18T15:14:04.117Z,6.93
2023-01-18T15:19:14.927Z,7.49
2023-01-18T15:24:24.836Z,8.06
2023-01-18T15:29:31.690Z,7.81
2023-01-18T15:34:37.289Z,6.24
2023-01-18T15:39:45.745Z,7.05
2023-01-18T15:44:52.101Z,7.77
2023-01-18T15:49:55.769Z,7.63
2023-01-18T15:55:03.657Z,5.76
2023-01-18T16:00:07.155Z,6.71
2023-01-18T16:05:23.975Z,7.60
2023-01-18T16:10:30.260Z,7.91
2023-01-18T16:15:35.769Z,7.83
2023-01-18T16:20:38.684Z,6.09
2023-01-18T16:25:41.488Z,6.96
2023-01-18T16:30:50.894Z,7.60
2023-01-18T16:35:53.598Z,7.96
2023-01-18T16:40:59.008Z,7.89
2023-01-18T16:46:03.731Z,7.59
2023-01-18T16:51:14.168Z,5.92
2023-01-18T16:56:16.974Z,7.08
2023-01-18T17:01:19.658Z,7.83
2023-01-18T17:06:22.723Z,7.97
2023-01-18T17:11:25.304Z,6.37
2023-01-18T17:16:27.939Z,6.71
2023-01-18T17:21:30.549Z,7.45
2023-01-18T17:26:33.557Z,7.88
2023-01-18T17:31:41.667Z,8.06
2023-01-18T17:36:47.577Z,6.29
2023-01-18T17:41:50.153Z,6.67
2023-01-18T17:46:52.916Z,7.50
2023-01-18T17:51:55.562Z,7.86
2023-01-18T17:56:58.367Z,7.88
2023-01-18T18:02:00.977Z,6.19
2023-01-18T18:07:04.150Z,7.09
2023-01-18T18:12:10.260Z,7.84
2023-01-18T18:17:12.883Z,8.11
2023-01-18T18:22:15.505Z,6.56
2023-01-18T18:27:18.465Z,6.14
2023-01-18T18:32:21.122Z,7.36
2023-01-18T18:37:23.808Z,8.03
2023-01-18T18:42:26.412Z,7.43
2023-01-18T18:47:29.015Z,5.96
2023-01-18T18:52:32.636Z,7.27
2023-01-18T18:57:36.551Z,8.02
2023-01-18T19:02:39.292Z,8.42
2023-01-18T19:07:42.985Z,6.90
2023-01-18T19:12:45.633Z,5.80
2023-01-18T19:17:50.167Z,7.30
2023-01-18T19:22:52.964Z,8.18
2023-01-18T19:27:55.680Z,8.16
2023-01-18T19:33:00.127Z,5.73
2023-01-18T19:38:05.241Z,5.06
2023-01-18T19:43:08.112Z,6.84
2023-01-18T19:48:10.717Z,7.78
2023-01-18T19:53:13.490Z,8.33
2023-01-18T19:58:18.535Z,8.41
2023-01-18T20:03:21.228Z,6.42
2023-01-18T20:08:23.916Z,5.63
2023-01-18T20:13:26.758Z,7.27
2023-01-18T20:18:32.132Z,8.13
2023-01-18T20:23:34.741Z,8.49
2023-01-18T20:28:38.186Z,7.37
2023-01-18T20:33:40.831Z,5.38
2023-01-18T20:38:43.479Z,6.52
2023-01-18T20:43:46.910Z,7.83
2023-01-18T20:48:49.602Z,8.42
2023-01-18T20:53:52.308Z,8.57
2023-01-18T20:58:54.989Z,6.51
2023-01-18T21:03:58.747Z,5.70
2023-01-18T21:09:01.516Z,7.33
2023-01-18T21:14:04.576Z,8.26
2023-01-18T21:19:07.192Z,8.71
2023-01-18T21:24:10.567Z,8.05
2023-01-18T21:29:13.217Z,6.16
2023-01-18T21:34:15.832Z,7.08
2023-01-18T21:39:18.632Z,7.63
2023-01-18T21:44:24.375Z,8.01
2023-01-18T21:49:42.897Z,8.43
2023-01-18T21:54:52.520Z,8.58
2023-01-18T22:01:04.482Z,7.88
2023-01-18T22:06:07.913Z,5.93
2023-01-18T22:11:10.566Z,7.07
2023-01-18T22:16:13.185Z,8.02
2023-01-18T22:21:16.083Z,8.27
2023-01-18T22:26:20.628Z,8.44
2023-01-18T22:31:23.328Z,8.45
2023-01-18T22:36:26.021Z,6.34
2023-01-18T22:41:29.709Z,5.69
2023-01-18T22:46:32.513Z,7.34
2023-01-18T22:51:35.704Z,8.20
2023-01-18T22:56:38.332Z,8.52
2023-01-18T23:01:40.988Z,8.88
2023-01-18T23:06:47.674Z,7.16
2023-01-18T23:11:51.560Z,6.44
2023-01-18T23:16:57.101Z,7.70
2023-01-18T23:21:59.987Z,8.40
2023-01-18T23:27:04.769Z,8.84
2023-01-18T23:32:07.908Z,8.16
2023-01-18T23:37:10.583Z,6.32
2023-01-18T23:42:18.627Z,7.43
2023-01-18T23:47:24.157Z,8.31
2023-01-18T23:52:29.711Z,8.65
2023-01-18T23:57:32.937Z,8.68
